Terminal Aerodrome Forecast
Issued by NWS Wakefield, VA

Home | Current Version | Previous Version | Text Only | Print | Product List | Glossary On
Versions: 1 2 3 4 5 6 7 8 9 10 11 12 13 14 15 16 17 18
000
FTUS41 KAKQ 131700
TAFORF
TAF
KORF 131730Z 1318/1418 21012KT P6SM SCT060 SCT250
     FM132300 21010KT P6SM BKN250
     FM141400 22010KT P6SM SCT080 SCT250=

USA.gov is the U.S. government's official web portal to all federal, state and local government web resources and services.